Time,TemperatureF,DewpointF,PressureIn,WindDirection,WindDirectionDegrees,WindSpeedMPH,WindSpeedGustMPH,Humidity,HourlyPrecipIn,Conditions,Clouds,dailyrainin,SoftwareType,DateUTC
2013-05-02 00:00:00,45.9,41.3,30.47,ENE,74,0.0,0.0,84,0.00,,,0.00,Wunderground v.1.15,2013-05-02 04:00:00,
2013-05-02 00:05:00,45.7,41.4,30.47,ENE,74,0.0,0.0,85,0.00,,,0.00,Wunderground v.1.15,2013-05-02 04:05:00,
2013-05-02 00:10:00,45.6,41.0,30.47,ENE,74,0.0,0.0,84,0.00,,,0.00,Wunderground v.1.15,2013-05-02 04:10:00,
2013-05-02 00:15:00,45.4,41.5,30.47,ENE,74,0.0,0.0,86,0.00,,,0.00,Wunderground v.1.15,2013-05-02 04:15:00,
2013-05-02 00:20:00,45.3,41.4,30.47,ENE,74,0.0,0.0,86,0.00,,,0.00,Wunderground v.1.15,2013-05-02 04:20:00,
2013-05-02 00:25:00,45.2,41.6,30.47,ENE,74,0.0,0.0,87,0.00,,,0.00,Wunderground v.1.15,2013-05-02 04:25:00,
2013-05-02 00:30:00,45.0,41.4,30.48,ENE,74,0.0,0.0,87,0.00,,,0.00,Wunderground v.1.15,2013-05-02 04:30:00,
2013-05-02 00:40:00,44.6,41.0,30.47,ENE,74,0.0,0.0,87,0.00,,,0.00,Wunderground v.1.15,2013-05-02 04:40:00,
2013-05-02 00:45:00,44.4,41.1,30.48,ENE,74,0.0,0.0,88,0.00,,,0.00,Wunderground v.1.15,2013-05-02 04:45:00,
2013-05-02 00:55:00,44.2,41.2,30.47,ENE,74,0.0,0.0,89,0.00,,,0.00,Wunderground v.1.15,2013-05-02 04:55:00,
2013-05-02 01:00:00,44.0,40.7,30.47,ENE,75,0.0,0.0,88,0.00,,,0.00,Wunderground v.1.15,2013-05-02 05:00:00,
2013-05-02 01:10:00,43.6,40.6,30.47,ENE,75,0.0,0.0,89,0.00,,,0.00,Wunderground v.1.15,2013-05-02 05:10:00,
2013-05-02 01:15:00,43.4,40.4,30.47,ENE,75,0.0,0.0,89,0.00,,,0.00,Wunderground v.1.15,2013-05-02 05:15:00,
2013-05-02 01:25:00,43.3,40.6,30.47,ENE,75,0.0,0.0,90,0.00,,,0.00,Wunderground v.1.15,2013-05-02 05:25:00,
2013-05-02 01:30:00,43.3,40.6,30.46,ENE,75,0.0,0.0,90,0.00,,,0.00,Wunderground v.1.15,2013-05-02 05:30:00,
2013-05-02 01:40:00,43.1,40.4,30.46,ENE,75,0.0,0.0,90,0.00,,,0.00,Wunderground v.1.15,2013-05-02 05:40:00,
2013-05-02 01:45:00,42.9,40.2,30.45,ENE,75,0.0,0.0,90,0.00,,,0.00,Wunderground v.1.15,2013-05-02 05:45:00,
2013-05-02 01:55:00,42.7,40.3,30.45,ENE,75,0.0,0.0,91,0.00,,,0.00,Wunderground v.1.15,2013-05-02 05:55:00,
2013-05-02 02:00:00,42.5,40.1,30.45,ENE,75,0.0,0.0,91,0.00,,,0.00,Wunderground v.1.15,2013-05-02 06:00:00,
2013-05-02 02:10:00,42.3,39.9,30.45,ENE,75,0.0,0.0,91,0.00,,,0.00,Wunderground v.1.15,2013-05-02 06:10:00,
2013-05-02 02:20:00,41.9,39.7,30.44,ENE,75,0.0,0.0,92,0.00,,,0.00,Wunderground v.1.15,2013-05-02 06:20:00,
2013-05-02 02:25:00,41.9,39.7,30.44,ENE,75,0.0,0.0,92,0.00,,,0.00,Wunderground v.1.15,2013-05-02 06:25:00,
2013-05-02 02:31:00,41.8,39.6,30.44,ENE,75,0.0,0.0,92,0.00,,,0.00,Wunderground v.1.15,2013-05-02 06:31:00,
2013-05-02 02:40:00,41.5,39.3,30.44,ENE,75,0.0,0.0,92,0.00,,,0.00,Wunderground v.1.15,2013-05-02 06:40:00,
2013-05-02 02:45:00,41.4,39.3,30.44,ENE,75,0.0,0.0,92,0.00,,,0.00,Wunderground v.1.15,2013-05-02 06:45:00,
2013-05-02 02:55:00,41.3,39.2,30.44,ENE,75,0.0,0.0,92,0.00,,,0.00,Wunderground v.1.15,2013-05-02 06:55:00,
2013-05-02 03:00:00,41.1,39.0,30.43,ENE,75,0.0,0.0,92,0.00,,,0.00,Wunderground v.1.15,2013-05-02 07:00:00,
2013-05-02 03:10:00,40.9,39.0,30.44,ENE,75,0.0,0.0,93,0.00,,,0.00,Wunderground v.1.15,2013-05-02 07:10:00,
2013-05-02 03:15:00,40.8,38.9,30.44,ENE,75,0.0,0.0,93,0.00,,,0.00,Wunderground v.1.15,2013-05-02 07:15:00,
2013-05-02 03:25:00,40.6,38.7,30.44,ENE,75,0.0,0.0,93,0.00,,,0.00,Wunderground v.1.15,2013-05-02 07:25:00,
2013-05-02 03:30:00,40.5,38.6,30.43,ENE,75,0.0,0.0,93,0.00,,,0.00,Wunderground v.1.15,2013-05-02 07:30:00,
2013-05-02 03:40:00,40.4,38.5,30.43,ENE,75,0.0,0.0,93,0.00,,,0.00,Wunderground v.1.15,2013-05-02 07:40:00,
2013-05-02 03:45:00,40.2,38.3,30.44,ENE,75,0.0,0.0,93,0.00,,,0.00,Wunderground v.1.15,2013-05-02 07:45:00,
2013-05-02 03:55:00,39.9,38.0,30.43,ENE,75,0.0,0.0,93,0.00,,,0.00,Wunderground v.1.15,2013-05-02 07:55:00,
2013-05-02 04:00:00,39.8,37.9,30.43,ENE,75,0.0,0.0,93,0.00,,,0.00,Wunderground v.1.15,2013-05-02 08:00:00,
2013-05-02 04:10:00,39.5,37.6,30.43,ENE,75,0.0,0.0,93,0.00,,,0.00,Wunderground v.1.15,2013-05-02 08:10:00,
2013-05-02 04:15:00,39.4,37.5,30.43,ENE,75,0.0,0.0,93,0.00,,,0.00,Wunderground v.1.15,2013-05-02 08:15:00,
2013-05-02 04:25:00,39.2,37.3,30.44,ENE,75,0.0,0.0,93,0.00,,,0.00,Wunderground v.1.15,2013-05-02 08:25:00,
2013-05-02 04:30:00,39.0,37.4,30.44,ENE,75,0.0,0.0,94,0.00,,,0.00,Wunderground v.1.15,2013-05-02 08:30:00,
2013-05-02 04:40:00,38.8,37.2,30.44,ENE,75,0.0,0.0,94,0.00,,,0.00,Wunderground v.1.15,2013-05-02 08:40:00,
2013-05-02 04:45:00,38.6,37.0,30.44,ENE,75,0.0,0.0,94,0.00,,,0.00,Wunderground v.1.15,2013-05-02 08:45:00,
2013-05-02 04:55:00,38.5,36.9,30.44,ENE,75,0.0,0.0,94,0.00,,,0.00,Wunderground v.1.15,2013-05-02 08:55:00,
2013-05-02 05:00:00,38.4,36.8,30.44,ENE,75,0.0,0.0,94,0.00,,,0.00,Wunderground v.1.15,2013-05-02 09:00:00,
2013-05-02 05:10:00,38.6,37.3,30.44,ENE,75,0.0,0.0,95,0.00,,,0.00,Wunderground v.1.15,2013-05-02 09:10:00,
2013-05-02 05:15:00,38.7,37.4,30.45,ENE,75,0.0,0.0,95,0.00,,,0.00,Wunderground v.1.15,2013-05-02 09:15:00,
2013-05-02 05:25:00,38.5,36.9,30.45,ENE,75,0.0,0.0,94,0.00,,,0.00,Wunderground v.1.15,2013-05-02 09:25:00,
2013-05-02 05:30:00,38.3,36.7,30.45,ENE,75,0.0,0.0,94,0.00,,,0.00,Wunderground v.1.15,2013-05-02 09:30:00,
2013-05-02 05:40:00,37.9,36.3,30.45,ENE,75,0.0,0.0,94,0.00,,,0.00,Wunderground v.1.15,2013-05-02 09:40:00,
2013-05-02 05:45:00,37.8,36.2,30.45,ENE,75,0.0,0.0,94,0.00,,,0.00,Wunderground v.1.15,2013-05-02 09:45:00,
2013-05-02 05:55:00,37.6,36.0,30.45,ENE,75,0.0,0.0,94,0.00,,,0.00,Wunderground v.1.15,2013-05-02 09:55:00,
2013-05-02 06:00:00,37.6,36.3,30.45,ENE,75,0.0,0.0,95,0.00,,,0.00,Wunderground v.1.15,2013-05-02 10:00:00,
2013-05-02 06:10:00,37.4,36.1,30.46,ENE,75,0.0,0.0,95,0.00,,,0.00,Wunderground v.1.15,2013-05-02 10:10:00,
2013-05-02 06:15:00,37.5,36.2,30.46,ENE,75,0.0,0.0,95,0.00,,,0.00,Wunderground v.1.15,2013-05-02 10:15:00,
2013-05-02 06:25:00,37.4,36.1,30.46,ENE,75,0.0,0.0,95,0.00,,,0.00,Wunderground v.1.15,2013-05-02 10:25:00,
2013-05-02 06:31:00,37.4,36.1,30.46,ENE,75,0.0,0.0,95,0.00,,,0.00,Wunderground v.1.15,2013-05-02 10:31:00,
2013-05-02 06:40:00,37.6,36.3,30.46,ENE,75,0.0,0.0,95,0.00,,,0.00,Wunderground v.1.15,2013-05-02 10:40:00,
2013-05-02 06:46:00,37.8,36.8,30.46,ENE,75,0.0,0.0,96,0.00,,,0.00,Wunderground v.1.15,2013-05-02 10:46:00,
2013-05-02 06:55:00,38.4,37.4,30.46,ENE,75,0.0,0.0,96,0.00,,,0.00,Wunderground v.1.15,2013-05-02 10:55:00,
2013-05-02 07:01:00,39.1,38.1,30.46,ENE,75,0.0,0.0,96,0.00,,,0.00,Wunderground v.1.15,2013-05-02 11:01:00,
2013-05-02 07:10:00,40.4,39.6,30.46,ENE,75,0.0,0.0,97,0.00,,,0.00,Wunderground v.1.15,2013-05-02 11:10:00,
2013-05-02 07:15:00,41.2,40.4,30.46,ENE,75,0.0,0.0,97,0.00,,,0.00,Wunderground v.1.15,2013-05-02 11:15:00,
2013-05-02 07:25:00,42.5,41.7,30.47,ENE,75,0.0,0.0,97,0.00,,,0.00,Wunderground v.1.15,2013-05-02 11:25:00,
2013-05-02 07:30:00,43.2,42.1,30.47,ENE,75,0.0,0.0,96,0.00,,,0.00,Wunderground v.1.15,2013-05-02 11:30:00,
2013-05-02 07:40:00,44.2,42.6,30.46,ENE,75,0.0,0.0,94,0.00,,,0.00,Wunderground v.1.15,2013-05-02 11:40:00,
2013-05-02 07:45:00,44.8,42.3,30.47,ENE,75,0.0,1.0,91,0.00,,,0.00,Wunderground v.1.15,2013-05-02 11:45:00,
2013-05-02 07:55:00,45.9,43.1,30.47,ENE,75,0.0,1.0,90,0.00,,,0.00,Wunderground v.1.15,2013-05-02 11:55:00,
2013-05-02 08:00:00,47.0,43.6,30.47,East,95,0.0,1.0,88,0.00,,,0.00,Wunderground v.1.15,2013-05-02 12:00:00,
2013-05-02 08:10:00,48.5,44.2,30.47,East,95,0.0,0.0,85,0.00,,,0.00,Wunderground v.1.15,2013-05-02 12:10:00,
2013-05-02 08:15:00,49.3,44.4,30.47,East,95,0.0,0.0,83,0.00,,,0.00,Wunderground v.1.15,2013-05-02 12:15:00,
2013-05-02 08:25:00,50.5,44.9,30.47,East,95,1.0,2.0,81,0.00,,,0.00,Wunderground v.1.15,2013-05-02 12:25:00,
2013-05-02 08:30:00,50.7,44.8,30.47,ENE,66,1.0,3.0,80,0.00,,,0.00,Wunderground v.1.15,2013-05-02 12:30:00,
2013-05-02 08:40:00,51.5,45.2,30.47,ENE,69,1.0,1.0,79,0.00,,,0.00,Wunderground v.1.15,2013-05-02 12:40:00,
2013-05-02 08:45:00,52.4,45.7,30.47,East,93,0.0,1.0,78,0.00,,,0.00,Wunderground v.1.15,2013-05-02 12:45:00,
2013-05-02 08:55:00,53.8,46.1,30.47,ENE,74,1.0,1.0,75,0.00,,,0.00,Wunderground v.1.15,2013-05-02 12:55:00,
2013-05-02 09:00:00,54.6,45.4,30.47,NE,44,1.0,1.0,71,0.00,,,0.00,Wunderground v.1.15,2013-05-02 13:00:00,
2013-05-02 09:10:00,55.5,46.2,30.47,ENE,76,1.0,1.0,71,0.00,,,0.00,Wunderground v.1.15,2013-05-02 13:10:00,
2013-05-02 09:15:00,56.4,46.7,30.47,NE,47,1.0,2.0,70,0.00,,,0.00,Wunderground v.1.15,2013-05-02 13:15:00,
2013-05-02 09:25:00,58.0,46.3,30.47,East,87,1.0,1.0,65,0.00,,,0.00,Wunderground v.1.15,2013-05-02 13:25:00,
2013-05-02 09:30:00,58.7,46.1,30.47,NE,38,1.0,1.0,63,0.00,,,0.00,Wunderground v.1.15,2013-05-02 13:30:00,
2013-05-02 09:40:00,60.1,44.8,30.47,East,101,0.0,0.0,57,0.00,,,0.00,Wunderground v.1.15,2013-05-02 13:40:00,
2013-05-02 09:45:00,61.2,44.4,30.47,NE,39,0.0,0.0,54,0.00,,,0.00,Wunderground v.1.15,2013-05-02 13:45:00,
2013-05-02 09:55:00,62.5,44.6,30.47,NNE,14,0.0,0.0,52,0.00,,,0.00,Wunderground v.1.15,2013-05-02 13:55:00,
2013-05-02 10:00:00,62.2,43.8,30.47,ESE,103,1.0,2.0,51,0.00,,,0.00,Wunderground v.1.15,2013-05-02 14:00:00,
2013-05-02 10:10:00,62.3,44.4,30.47,East,92,1.0,1.0,52,0.00,,,0.00,Wunderground v.1.15,2013-05-02 14:10:00,
2013-05-02 10:16:00,63.1,44.2,30.47,East,92,0.0,1.0,50,0.00,,,0.00,Wunderground v.1.15,2013-05-02 14:16:00,
2013-05-02 10:25:00,64.0,44.4,30.47,East,84,1.0,3.0,49,0.00,,,0.00,Wunderground v.1.15,2013-05-02 14:25:00,
2013-05-02 10:30:00,63.9,43.8,30.47,ENE,76,1.0,1.0,48,0.00,,,0.00,Wunderground v.1.15,2013-05-02 14:30:00,
2013-05-02 10:40:00,63.6,43.5,30.47,East,89,2.0,2.0,48,0.00,,,0.00,Wunderground v.1.15,2013-05-02 14:40:00,
2013-05-02 10:45:00,63.9,44.4,30.47,NNE,18,1.0,2.0,49,0.00,,,0.00,Wunderground v.1.15,2013-05-02 14:45:00,
2013-05-02 10:55:00,65.4,45.2,30.47,West,259,1.0,1.0,48,0.00,,,0.00,Wunderground v.1.15,2013-05-02 14:55:00,
2013-05-02 11:01:00,66.0,45.2,30.47,ESE,110,0.0,0.0,47,0.00,,,0.00,Wunderground v.1.15,2013-05-02 15:01:00,
2013-05-02 11:10:00,67.7,45.6,30.46,SE,126,0.0,0.0,45,0.00,,,0.00,Wunderground v.1.15,2013-05-02 15:10:00,
2013-05-02 11:15:00,68.0,44.0,30.46,West,265,0.0,0.0,42,0.00,,,0.00,Wunderground v.1.15,2013-05-02 15:15:00,
2013-05-02 11:25:00,68.2,46.6,30.46,NNW,334,0.0,1.0,46,0.00,,,0.00,Wunderground v.1.15,2013-05-02 15:25:00,
2013-05-02 11:30:00,68.5,45.1,30.45,NNE,22,1.0,1.0,43,0.00,,,0.00,Wunderground v.1.15,2013-05-02 15:30:00,
2013-05-02 11:40:00,67.9,46.3,30.45,WSW,238,1.0,1.0,46,0.00,,,0.00,Wunderground v.1.15,2013-05-02 15:40:00,
2013-05-02 11:45:00,68.0,44.0,30.45,WSW,252,1.0,1.0,42,0.00,,,0.00,Wunderground v.1.15,2013-05-02 15:45:00,
2013-05-02 11:55:00,69.8,46.3,30.45,ESE,105,0.0,0.0,43,0.00,,,0.00,Wunderground v.1.15,2013-05-02 15:55:00,
2013-05-02 12:00:00,70.9,45.4,30.45,WNW,296,0.0,0.0,40,0.00,,,0.00,Wunderground v.1.15,2013-05-02 16:00:00,
2013-05-02 12:10:00,72.4,46.7,30.44,NE,54,0.0,0.0,40,0.00,,,0.00,Wunderground v.1.15,2013-05-02 16:10:00,
2013-05-02 12:15:00,72.8,45.7,30.44,SSW,202,0.0,3.0,38,0.00,,,0.00,Wunderground v.1.15,2013-05-02 16:15:00,
2013-05-02 12:25:00,72.9,45.1,30.43,East,88,0.0,0.0,37,0.00,,,0.00,Wunderground v.1.15,2013-05-02 16:25:00,
2013-05-02 12:30:00,72.1,45.8,30.43,North,5,1.0,1.0,39,0.00,,,0.00,Wunderground v.1.15,2013-05-02 16:30:00,
2013-05-02 12:40:00,71.8,44.8,30.43,SSE,158,1.0,1.0,38,0.00,,,0.00,Wunderground v.1.15,2013-05-02 16:40:00,
2013-05-02 12:45:00,72.7,44.2,30.43,ENE,68,1.0,1.0,36,0.00,,,0.00,Wunderground v.1.15,2013-05-02 16:45:00,
2013-05-02 12:55:00,72.5,44.0,30.42,NE,56,1.0,1.0,36,0.00,,,0.00,Wunderground v.1.15,2013-05-02 16:55:00,
2013-05-02 13:00:00,71.7,44.0,30.42,ENE,74,2.0,2.0,37,0.00,,,0.00,Wunderground v.1.15,2013-05-02 17:00:00,
2013-05-02 13:10:00,72.8,45.7,30.42,SSE,156,1.0,1.0,38,0.00,,,0.00,Wunderground v.1.15,2013-05-02 17:10:00,
2013-05-02 13:15:00,73.8,43.7,30.42,East,80,0.0,1.0,34,0.00,,,0.00,Wunderground v.1.15,2013-05-02 17:15:00,
2013-05-02 13:25:00,73.6,44.2,30.41,SW,229,1.0,2.0,35,0.00,,,0.00,Wunderground v.1.15,2013-05-02 17:25:00,
2013-05-02 13:30:00,73.5,43.4,30.41,ENE,58,1.0,3.0,34,0.00,,,0.00,Wunderground v.1.15,2013-05-02 17:30:00,
2013-05-02 13:40:00,73.0,44.5,30.40,SSW,211,2.0,2.0,36,0.00,,,0.00,Wunderground v.1.15,2013-05-02 17:40:00,
2013-05-02 13:45:00,73.7,45.1,30.40,ENE,58,1.0,2.0,36,0.00,,,0.00,Wunderground v.1.15,2013-05-02 17:45:00,
2013-05-02 13:55:00,74.2,45.5,30.40,South,170,1.0,4.0,36,0.00,,,0.00,Wunderground v.1.15,2013-05-02 17:55:00,
2013-05-02 14:00:00,73.6,45.0,30.40,East,84,2.0,3.0,36,0.00,,,0.00,Wunderground v.1.15,2013-05-02 18:00:00,
2013-05-02 14:10:00,75.0,45.5,30.39,South,190,1.0,1.0,35,0.00,,,0.00,Wunderground v.1.15,2013-05-02 18:10:00,
2013-05-02 14:15:00,75.6,45.2,30.39,SSW,210,1.0,1.0,34,0.00,,,0.00,Wunderground v.1.15,2013-05-02 18:15:00,
2013-05-02 14:25:00,75.8,43.8,30.39,West,259,1.0,1.0,32,0.00,,,0.00,Wunderground v.1.15,2013-05-02 18:25:00,
2013-05-02 14:35:00,75.8,45.4,30.39,SSW,196,1.0,2.0,34,0.00,,,0.00,Wunderground v.1.15,2013-05-02 18:35:00,
2013-05-02 14:40:00,75.4,44.3,30.39,South,174,1.0,2.0,33,0.00,,,0.00,Wunderground v.1.15,2013-05-02 18:40:00,
2013-05-02 14:45:00,75.6,46.0,30.38,South,187,1.0,3.0,35,0.00,,,0.00,Wunderground v.1.15,2013-05-02 18:45:00,
2013-05-02 14:54:00,74.9,44.6,30.38,SW,219,2.0,2.0,34,0.00,,,0.00,Wunderground v.1.15,2013-05-02 18:54:00,
2013-05-02 15:00:00,75.0,47.7,30.38,NE,53,1.0,2.0,38,0.00,,,0.00,Wunderground v.1.15,2013-05-02 19:00:00,
2013-05-02 15:10:00,75.3,44.2,30.38,South,191,1.0,1.0,33,0.00,,,0.00,Wunderground v.1.15,2013-05-02 19:10:00,
2013-05-02 15:15:00,75.0,45.5,30.37,SSW,197,1.0,1.0,35,0.00,,,0.00,Wunderground v.1.15,2013-05-02 19:15:00,
2013-05-02 15:25:00,74.7,44.5,30.37,ENE,65,2.0,3.0,34,0.00,,,0.00,Wunderground v.1.15,2013-05-02 19:25:00,
2013-05-02 15:30:00,74.8,43.8,30.37,ESE,120,1.0,1.0,33,0.00,,,0.00,Wunderground v.1.15,2013-05-02 19:30:00,
2013-05-02 15:40:00,74.7,44.5,30.37,South,178,1.0,1.0,34,0.00,,,0.00,Wunderground v.1.15,2013-05-02 19:40:00,
2013-05-02 15:45:00,74.8,44.5,30.37,SE,144,1.0,1.0,34,0.00,,,0.00,Wunderground v.1.15,2013-05-02 19:45:00,
2013-05-02 15:54:00,74.1,43.9,30.36,SSW,199,2.0,2.0,34,0.00,,,0.00,Wunderground v.1.15,2013-05-02 19:54:00,
2013-05-02 16:00:00,74.0,46.1,30.36,South,188,2.0,2.0,37,0.00,,,0.00,Wunderground v.1.15,2013-05-02 20:00:00,
2013-05-02 16:09:00,74.2,45.5,30.36,South,170,1.0,1.0,36,0.00,,,0.00,Wunderground v.1.15,2013-05-02 20:09:00,
2013-05-02 16:15:00,74.2,44.0,30.36,SSW,192,1.0,1.0,34,0.00,,,0.00,Wunderground v.1.15,2013-05-02 20:15:00,
2013-05-02 16:24:00,74.0,45.3,30.35,SSW,210,1.0,4.0,36,0.00,,,0.00,Wunderground v.1.15,2013-05-02 20:24:00,
2013-05-02 16:30:00,73.7,45.1,30.35,SSW,193,2.0,2.0,36,0.00,,,0.00,Wunderground v.1.15,2013-05-02 20:30:00,
2013-05-02 16:40:00,73.7,44.3,30.35,South,189,1.0,1.0,35,0.00,,,0.00,Wunderground v.1.15,2013-05-02 20:40:00,
2013-05-02 16:45:00,73.4,45.5,30.35,SSW,211,2.0,2.0,37,0.00,,,0.00,Wunderground v.1.15,2013-05-02 20:45:00,
2013-05-02 16:55:00,73.4,45.5,30.35,South,185,1.0,3.0,37,0.00,,,0.00,Wunderground v.1.15,2013-05-02 20:55:00,
2013-05-02 17:00:00,73.3,45.4,30.35,South,191,1.0,1.0,37,0.00,,,0.00,Wunderground v.1.15,2013-05-02 21:00:00,
2013-05-02 17:10:00,73.3,44.7,30.35,South,188,1.0,3.0,36,0.00,,,0.00,Wunderground v.1.15,2013-05-02 21:10:00,
2013-05-02 17:15:00,73.1,44.5,30.35,SSW,209,1.0,3.0,36,0.00,,,0.00,Wunderground v.1.15,2013-05-02 21:15:00,
2013-05-02 17:24:00,72.9,44.4,30.34,SSW,207,1.0,2.0,36,0.00,,,0.00,Wunderground v.1.15,2013-05-02 21:24:00,
2013-05-02 17:30:00,73.1,44.5,30.34,SSW,205,1.0,1.0,36,0.00,,,0.00,Wunderground v.1.15,2013-05-02 21:30:00,